sensor_id;sensor_type;location;lat;lon;timestamp;pressure;altitude;pressure_sealevel;temperature;humidity
47710;BME280;33473;51.640;5.892;2023-02-01T00:04:29;101900;;;8.7;57.0
47710;BME280;33473;51.640;5.892;2023-02-01T00:17:48;101900;;;8.7;57.0
47710;BME280;33473;51.640;5.892;2023-02-01T00:31:08;101900;;;9.1;56.0
47710;BME280;33473;51.640;5.892;2023-02-01T00:44:28;101800;;;8.9;57.0
47710;BME280;33473;51.640;5.892;2023-02-01T00:57:47;101900;;;8.9;56.0
47710;BME280;33473;51.640;5.892;2023-02-01T01:11:07;101800;;;8.8;56.0
47710;BME280;33473;51.640;5.892;2023-02-01T01:24:27;101900;;;8.8;55.0
47710;BME280;33473;51.640;5.892;2023-02-01T01:37:46;101800;;;8.8;55.0
47710;BME280;33473;51.640;5.892;2023-02-01T01:51:06;101800;;;8.6;55.0
47710;BME280;33473;51.640;5.892;2023-02-01T02:04:26;101800;;;8.4;55.0
47710;BME280;33473;51.640;5.892;2023-02-01T02:17:45;101800;;;8.6;54.0
47710;BME280;33473;51.640;5.892;2023-02-01T02:31:05;101800;;;9.2;53.0
47710;BME280;33473;51.640;5.892;2023-02-01T02:44:25;101800;;;8.1;55.0
47710;BME280;33473;51.640;5.892;2023-02-01T02:57:44;101800;;;8.1;56.0
47710;BME280;33473;51.640;5.892;2023-02-01T03:11:04;101800;;;8.2;57.0
47710;BME280;33473;51.640;5.892;2023-02-01T03:24:24;101800;;;8.3;58.0
47710;BME280;33473;51.640;5.892;2023-02-01T03:37:43;101800;;;8.3;58.0
47710;BME280;33473;51.640;5.892;2023-02-01T03:51:03;101700;;;8.4;57.0
47710;BME280;33473;51.640;5.892;2023-02-01T04:04:23;101800;;;8.2;58.0
47710;BME280;33473;51.640;5.892;2023-02-01T04:17:43;101800;;;8.1;58.0
47710;BME280;33473;51.640;5.892;2023-02-01T04:31:02;101800;;;8.2;58.0
47710;BME280;33473;51.640;5.892;2023-02-01T04:44:22;101800;;;8.2;58.0
47710;BME280;33473;51.640;5.892;2023-02-01T04:57:42;101800;;;8.2;58.0
47710;BME280;33473;51.640;5.892;2023-02-01T05:11:01;101800;;;8.4;58.0
47710;BME280;33473;51.640;5.892;2023-02-01T05:24:21;101800;;;8.5;58.0
47710;BME280;33473;51.640;5.892;2023-02-01T05:37:41;101800;;;8.9;58.0
47710;BME280;33473;51.640;5.892;2023-02-01T05:51:00;101800;;;8.8;58.0
47710;BME280;33473;51.640;5.892;2023-02-01T06:04:20;101800;;;8.7;58.0
47710;BME280;33473;51.640;5.892;2023-02-01T06:17:40;101800;;;8.7;58.0
47710;BME280;33473;51.640;5.892;2023-02-01T06:30:59;101800;;;9.1;57.0
47710;BME280;33473;51.640;5.892;2023-02-01T06:44:19;101800;;;9.1;58.0
47710;BME280;33473;51.640;5.892;2023-02-01T06:57:39;101800;;;9.2;58.0
47710;BME280;33473;51.640;5.892;2023-02-01T07:10:58;101800;;;9.0;58.0
47710;BME280;33473;51.640;5.892;2023-02-01T07:24:18;101800;;;9.0;58.0
47710;BME280;33473;51.640;5.892;2023-02-01T07:37:38;101800;;;9.2;57.0
47710;BME280;33473;51.640;5.892;2023-02-01T07:50:58;101800;;;8.9;58.0
47710;BME280;33473;51.640;5.892;2023-02-01T08:04:17;101800;;;9.2;57.0
47710;BME280;33473;51.640;5.892;2023-02-01T08:17:37;101800;;;9.2;57.0
47710;BME280;33473;51.640;5.892;2023-02-01T08:30:57;101800;;;9.0;58.0
47710;BME280;33473;51.640;5.892;2023-02-01T08:44:16;101800;;;9.7;57.0
47710;BME280;33473;51.640;5.892;2023-02-01T08:57:36;101800;;;9.3;58.0
47710;BME280;33473;51.640;5.892;2023-02-01T09:10:56;101800;;;9.8;57.0
47710;BME280;33473;51.640;5.892;2023-02-01T09:24:15;101800;;;9.4;58.0
47710;BME280;33473;51.640;5.892;2023-02-01T09:37:35;101800;;;10.1;57.0
47710;BME280;33473;51.640;5.892;2023-02-01T09:50:55;101800;;;10.3;56.0
47710;BME280;33473;51.640;5.892;2023-02-01T10:04:14;101800;;;10.0;57.0
47710;BME280;33473;51.640;5.892;2023-02-01T10:17:34;101800;;;10.7;55.0
47710;BME280;33473;51.640;5.892;2023-02-01T10:30:54;101800;;;10.5;55.0
47710;BME280;33473;51.640;5.892;2023-02-01T10:44:13;101800;;;10.3;55.0
47710;BME280;33473;51.640;5.892;2023-02-01T10:57:33;101800;;;10.3;55.0
47710;BME280;33473;51.640;5.892;2023-02-01T11:10:53;101700;;;10.4;54.0
47710;BME280;33473;51.640;5.892;2023-02-01T11:24:12;101700;;;10.2;54.0
47710;BME280;33473;51.640;5.892;2023-02-01T11:37:32;101700;;;10.5;53.0
47710;BME280;33473;51.640;5.892;2023-02-01T11:50:52;101700;;;10.5;54.0
47710;BME280;33473;51.640;5.892;2023-02-01T12:04:11;101700;;;10.5;54.0
47710;BME280;33473;51.640;5.892;2023-02-01T12:17:31;101700;;;10.2;55.0
47710;BME280;33473;51.640;5.892;2023-02-01T12:30:51;101700;;;10.0;56.0
47710;BME280;33473;51.640;5.892;2023-02-01T12:44:10;101700;;;10.4;55.0
47710;BME280;33473;51.640;5.892;2023-02-01T12:57:30;101700;;;10.4;54.0
47710;BME280;33473;51.640;5.892;2023-02-01T13:10:50;101700;;;10.5;54.0
47710;BME280;33473;51.640;5.892;2023-02-01T13:24:09;101700;;;11.3;53.0
47710;BME280;33473;51.640;5.892;2023-02-01T13:37:29;101700;;;11.1;53.0
47710;BME280;33473;51.640;5.892;2023-02-01T13:50:49;101700;;;10.9;54.0
47710;BME280;33473;51.640;5.892;2023-02-01T14:04:08;101700;;;11.4;53.0
47710;BME280;33473;51.640;5.892;2023-02-01T14:17:28;101700;;;11.2;54.0
47710;BME280;33473;51.640;5.892;2023-02-01T14:30:48;101700;;;11.0;54.0
47710;BME280;33473;51.640;5.892;2023-02-01T14:44:07;101700;;;11.0;53.0
47710;BME280;33473;51.640;5.892;2023-02-01T14:57:27;101700;;;11.1;54.0
47710;BME280;33473;51.640;5.892;2023-02-01T15:24:06;101700;;;10.8;54.0
47710;BME280;33473;51.640;5.892;2023-02-01T15:37:26;101700;;;10.8;55.0
47710;BME280;33473;51.640;5.892;2023-02-01T15:50:46;101700;;;10.8;55.0
47710;BME280;33473;51.640;5.892;2023-02-01T16:04:05;101800;;;10.8;55.0
47710;BME280;33473;51.640;5.892;2023-02-01T16:17:25;101800;;;11.1;54.0
47710;BME280;33473;51.640;5.892;2023-02-01T16:30:45;101800;;;11.3;54.0
47710;BME280;33473;51.640;5.892;2023-02-01T16:44:04;101800;;;11.1;54.0
47710;BME280;33473;51.640;5.892;2023-02-01T16:57:24;101800;;;11.2;54.0
47710;BME280;33473;51.640;5.892;2023-02-01T17:10:44;101800;;;10.9;54.0
47710;BME280;33473;51.640;5.892;2023-02-01T17:24:03;101800;;;11.3;53.0
47710;BME280;33473;51.640;5.892;2023-02-01T17:37:23;101800;;;11.1;54.0
47710;BME280;33473;51.640;5.892;2023-02-01T17:50:43;101800;;;11.0;55.0
47710;BME280;33473;51.640;5.892;2023-02-01T18:04:03;101800;;;11.1;54.0
47710;BME280;33473;51.640;5.892;2023-02-01T18:17:22;101800;;;11.4;54.0
47710;BME280;33473;51.640;5.892;2023-02-01T18:30:42;101800;;;11.4;54.0
47710;BME280;33473;51.640;5.892;2023-02-01T18:44:02;101800;;;11.4;54.0
47710;BME280;33473;51.640;5.892;2023-02-01T18:57:21;101800;;;11.0;56.0
47710;BME280;33473;51.640;5.892;2023-02-01T19:10:41;101800;;;11.0;55.0
47710;BME280;33473;51.640;5.892;2023-02-01T19:24:01;101800;;;11.1;56.0
47710;BME280;33473;51.640;5.892;2023-02-01T19:37:20;101800;;;11.1;56.0
47710;BME280;33473;51.640;5.892;2023-02-01T19:50:40;101800;;;11.1;56.0
47710;BME280;33473;51.640;5.892;2023-02-01T20:04:00;101800;;;11.1;56.0
47710;BME280;33473;51.640;5.892;2023-02-01T20:17:19;101800;;;11.4;56.0
47710;BME280;33473;51.640;5.892;2023-02-01T20:30:39;101800;;;11.4;55.0
47710;BME280;33473;51.640;5.892;2023-02-01T20:43:59;101900;;;11.5;56.0
47710;BME280;33473;51.640;5.892;2023-02-01T20:57:18;101800;;;11.4;56.0
47710;BME280;33473;51.640;5.892;2023-02-01T21:10:38;101900;;;11.5;56.0
47710;BME280;33473;51.640;5.892;2023-02-01T21:23:58;101900;;;11.6;56.0
47710;BME280;33473;51.640;5.892;2023-02-01T21:37:17;101900;;;11.3;56.0
47710;BME280;33473;51.640;5.892;2023-02-01T21:50:37;101900;;;11.3;57.0
47710;BME280;33473;51.640;5.892;2023-02-01T22:03:57;101900;;;11.5;56.0
47710;BME280;33473;51.640;5.892;2023-02-01T22:17:17;101900;;;11.3;58.0
47710;BME280;33473;51.640;5.892;2023-02-01T22:30:36;101900;;;11.4;57.0
47710;BME280;33473;51.640;5.892;2023-02-01T22:43:56;101900;;;11.3;57.0
47710;BME280;33473;51.640;5.892;2023-02-01T22:57:16;101900;;;11.1;59.0
47710;BME280;33473;51.640;5.892;2023-02-01T23:10:35;101900;;;11.4;60.0
47710;BME280;33473;51.640;5.892;2023-02-01T23:23:55;101900;;;10.9;60.0
47710;BME280;33473;51.640;5.892;2023-02-01T23:37:15;102000;;;11.0;61.0
47710;BME280;33473;51.640;5.892;2023-02-01T23:50:34;102000;;;11.1;62.0
